^^
MeteoGriva-Weather Station Historical Data
Daily Summary for January 23, 2021 Units:  English    Metric   Both
Daily Weekly Monthly Yearly Custom
  High: Low: Average:
Temperature: 50.7 °F 45.9 °F 48 °F
Dew Point: 44.4 °F 39.4 °F 43 °F
Humidity: 87.2% 76% 83%
Wind Speed: 8.1mph 0mph 2.4mph
Wind Gust: 13.6mph - -
Wind- - SSW
Pressure: 30.1 in 29.8 in -
Precipitation: 0.17 in    
Historical Graphs
 
 
Tabular Data for January 23, 2021
Time Temperature Dew Point Pressure Wind Wind Speed Wind Gust Humidity Rainfall Rate (Hourly) solar
00:04 47.5 °F 41.9 °F 30.1 in NW 3.2 mph 5.1 mph 80.8% 0 in 0 W/m2
00:09 47.7 °F 41.5 °F 30.1 in NW 3.3 mph 4.5 mph 79.6% 0 in 0 W/m2
00:14 47.5 °F 41.7 °F 30.1 in NW 3.2 mph 4.3 mph 80.4% 0 in 0 W/m2
00:19 47.7 °F 41.9 °F 30.1 in NW 2.9 mph 4 mph 80.4% 0 in 0 W/m2
00:24 47.7 °F 41.9 °F 30.1 in NW 2.3 mph 3.8 mph 80.6% 0 in 0 W/m2
00:29 47.8 °F 42.3 °F 30.1 in NW 0.9 mph 2.7 mph 81% 0 in 0 W/m2
00:34 47.8 °F 42.6 °F 30.1 in NW 1 mph 2.2 mph 82% 0 in 0 W/m2
00:39 47.8 °F 42.6 °F 30.1 in WNW 1.2 mph 2.2 mph 82% 0 in 0 W/m2
00:44 47.8 °F 42.6 °F 30.1 in WNW 2.2 mph 3.1 mph 82% 0 in 0 W/m2
00:49 47.8 °F 43 °F 30.1 in WNW 1.4 mph 3.1 mph 82.8% 0 in 0 W/m2
00:54 47.8 °F 43 °F 30.1 in WNW 2.2 mph 3.4 mph 82.8% 0 in 0 W/m2
00:59 47.8 °F 42.6 °F 30.1 in WNW 2.1 mph 3.4 mph 82% 0 in 0 W/m2
01:04 48 °F 42.8 °F 30.1 in NW 1.4 mph 2.2 mph 82% 0 in 0 W/m2
01:09 47.8 °F 43.2 °F 30.1 in West 1.6 mph 3.8 mph 83.4% 0 in 0 W/m2
01:14 47.3 °F 42.8 °F 30.1 in WNW 2.5 mph 4 mph 84% 0 in 0 W/m2
01:19 46.8 °F 42.4 °F 30.1 in WNW 1.6 mph 3.8 mph 85% 0 in 0 W/m2
01:24 46.6 °F 42.6 °F 30.1 in WNW 1.3 mph 2.9 mph 86% 0 in 0 W/m2
01:29 46.6 °F 42.6 °F 30.1 in WNW 2 mph 3.4 mph 86% 0 in 0 W/m2
01:34 46.8 °F 42.8 °F 30.1 in WNW 0.2 mph 3.1 mph 86% 0 in 0 W/m2
01:39 46.9 °F 43 °F 30.1 in Calm   1.8 mph 86% 0 in 0 W/m2
01:44 47.1 °F 43 °F 30.1 in West 1.4 mph 2.5 mph 85.4% 0 in 0 W/m2
01:49 47.1 °F 43.2 °F 30.1 in West 1.2 mph 2.7 mph 85.8% 0 in 0 W/m2
01:54 46.9 °F 43 °F 30.1 in WNW 1.4 mph 2.7 mph 86% 0 in 0 W/m2
01:59 46.8 °F 42.8 °F 30.1 in WNW 0.9 mph 2.5 mph 86% 0 in 0 W/m2
02:04 46.8 °F 42.8 °F 30.1 in West 1.6 mph 2.7 mph 86% 0 in 0 W/m2
02:09 46.8 °F 42.8 °F 30.1 in WNW 2.1 mph 3.6 mph 86% 0 in 0 W/m2
02:14 46.4 °F 42.8 °F 30.1 in West 0.9 mph 2.9 mph 87% 0 in 0 W/m2
02:19 46.2 °F 42.6 °F 30.1 in West 1.6 mph 3.1 mph 87% 0 in 0 W/m2
02:24 46 °F 42.4 °F 30.1 in West 1.6 mph 2.9 mph 87% 0 in 0 W/m2
02:29 46 °F 42.4 °F 30.1 in West 1.8 mph 3.1 mph 87.2% 0 in 0 W/m2
02:34 46 °F 42.4 °F 30.1 in WNW 1.9 mph 3.4 mph 87% 0 in 0 W/m2
02:39 46 °F 42.4 °F 30.1 in WNW 1.9 mph 3.4 mph 87% 0 in 0 W/m2
02:44 46 °F 42.4 °F 30.1 in WNW 1.9 mph 3.1 mph 87% 0 in 0 W/m2
02:49 46.2 °F 42.6 °F 30.1 in WNW 1.7 mph 3.1 mph 86.8% 0 in 0 W/m2
02:54 46.4 °F 42.8 °F 30.1 in West 0.5 mph 2.7 mph 86.8% 0 in 0 W/m2
02:59 46.4 °F 42.8 °F 30.1 in WNW 1.6 mph 2.9 mph 87% 0 in 0 W/m2
03:04 46.6 °F 42.8 °F 30.1 in WNW 1.6 mph 2.9 mph 86.6% 0 in 0 W/m2
03:09 46.4 °F 42.4 °F 30.1 in WNW 2 mph 3.6 mph 86% 0 in 0 W/m2
03:14 46.2 °F 42.3 °F 30.1 in WNW 1.4 mph 4.9 mph 86% 0 in 0 W/m2
03:19 46 °F 42.1 °F 30.1 in West 0.7 mph 3.1 mph 85.8% 0 in 0 W/m2
03:24 46 °F 41.5 °F 30.1 in West 1 mph 4 mph 84% 0 in 0 W/m2
03:29 46.4 °F 41.5 °F 30.1 in West 0.9 mph 3.6 mph 83% 0 in 0 W/m2
03:34 46.4 °F 41.4 °F 30.1 in WSW 0.7 mph 3.6 mph 82.6% 0 in 0 W/m2
03:39 46.4 °F 41.9 °F 30.1 in ENE 0.2 mph 2.5 mph 83.8% 0 in 0 W/m2
03:44 46.4 °F 41.9 °F 30.1 in NW 1.9 mph 2.9 mph 84.4% 0 in 0 W/m2
03:49 46.2 °F 42.1 °F 30.1 in NW 2 mph 3.1 mph 85.4% 0 in 0 W/m2
03:54 46.2 °F 42.3 °F 30.1 in NW 2.7 mph 4.5 mph 86% 0 in 0 W/m2
03:59 46.4 °F 42.1 °F 30.1 in WNW 2.6 mph 4.5 mph 85% 0 in 0 W/m2
04:04 46.4 °F 42.4 °F 30.1 in Calm   3.4 mph 85.8% 0 in 0 W/m2
04:09 46.8 °F 42.3 °F 30.1 in Calm     85% 0 in 0 W/m2
04:14 46.8 °F 42.4 °F 30.1 in WNW 0.7 mph 2.9 mph 85% 0 in 0 W/m2
04:19 46.6 °F 42.1 °F 30.1 in West 2.1 mph 3.1 mph 84.2% 0 in 0 W/m2
04:24 46.4 °F 42.1 °F 30 in West 1.8 mph 3.1 mph 85% 0 in 0 W/m2
04:29 46.2 °F 41.9 °F 30 in WNW 1.4 mph 3.6 mph 85.2% 0 in 0 W/m2
04:34 46 °F 41.7 °F 30 in WNW 1.2 mph 6 mph 85.2% 0 in 0 W/m2
04:39 46 °F 41.7 °F 30 in WNW 2.4 mph 6 mph 85% 0 in 0 W/m2
04:44 45.9 °F 41.5 °F 30 in WNW 1.2 mph 3.6 mph 85.2% 0 in 0 W/m2
04:49 46 °F 41.7 °F 30 in WNW 1.5 mph 3.8 mph 85% 0 in 0 W/m2
04:54 46.2 °F 42.1 °F 30 in WNW 2.2 mph 4.5 mph 85.6% 0 in 0 W/m2
04:59 46.2 °F 42.3 °F 30 in WNW 2.5 mph 4 mph 86% 0 in 0 W/m2
05:04 46.4 °F 42.4 °F 30 in NW 2.6 mph 3.8 mph 86% 0 in 0 W/m2
05:09 46.4 °F 42.4 °F 30 in WNW 2.2 mph 3.8 mph 86% 0 in 0 W/m2
05:14 46.8 °F 42.6 °F 30 in WNW 2.1 mph 2.9 mph 86% 0 in 0 W/m2
05:19 46.8 °F 42.8 °F 30 in NW 1.6 mph 2.9 mph 86% 0 in 0 W/m2
05:24 46.8 °F 42.8 °F 30 in WNW 2.2 mph 3.4 mph 85.8% 0 in 0 W/m2
05:29 46.8 °F 42.6 °F 30 in WNW 2.1 mph 3.6 mph 85.5% 0 in 0 W/m2
05:34 46.8 °F 42.8 °F 30 in WNW 1.9 mph 3.6 mph 85.9% 0 in 0 W/m2
05:39 46.8 °F 42.8 °F 30 in West 0.6 mph 3.4 mph 86% 0 in 0 W/m2
05:44 46.2 °F 42.4 °F 30 in WNW 1.5 mph 4 mph 86.2% 0 in 0 W/m2
05:49 45.9 °F 42.3 °F 30 in NW 1.2 mph 4 mph 87% 0 in 0 W/m2
05:54 46 °F 42.4 °F 30 in WNW 0.2 mph 3.4 mph 87% 0 in 0 W/m2
05:59 46 °F 42.3 °F 30 in West 0.6 mph 3.6 mph 86.4% 0 in 0 W/m2
06:04 46.2 °F 42.1 °F 30 in West 0.7 mph 2.9 mph 85.1% 0 in 0 W/m2
06:09 46.6 °F 41.7 °F 30 in WNW 0.9 mph 2.9 mph 83.5% 0 in 0 W/m2
06:14 46.6 °F 41.9 °F 30 in West 1 mph 2.9 mph 83.7% 0 in 0 W/m2
06:19 46.8 °F 42.1 °F 30 in West 0.9 mph 2.7 mph 83.8% 0 in 0 W/m2
06:24 46.8 °F 42.3 °F 30 in WNW 2.2 mph 2.9 mph 83.7% 0 in 0 W/m2
06:29 46.9 °F 42.1 °F 30 in WNW 2.4 mph 2.9 mph 83% 0 in 0 W/m2
06:34 46.9 °F 42.1 °F 30 in WNW 0.8 mph 2.9 mph 83% 0 in 0 W/m2
06:39 46.9 °F 42.3 °F 30 in NW 0.1 mph 0.4 mph 83.5% 0 in 0 W/m2
06:44 46.9 °F 42.4 °F 30 in Calm   0.4 mph 84% 0 in 0 W/m2
06:49 46.8 °F 42.3 °F 30 in Calm     84% 0 in 0 W/m2
06:54 46.6 °F 42.3 °F 30 in Calm   2 mph 84.2% 0 in 0 W/m2
06:59 46.6 °F 42.3 °F 30 in West 0.2 mph 2 mph 84.4% 0 in 0 W/m2
07:04 46.6 °F 42.3 °F 30 in WNW 1.7 mph 3.8 mph 84.8% 0 in 0 W/m2
07:09 46.6 °F 42.1 °F 30 in NW 1.2 mph 3.8 mph 84% 0 in 0 W/m2
07:14 46.6 °F 42.3 °F 30 in NW 2.4 mph 4 mph 84.4% 0 in 0 W/m2
07:19 46.8 °F 42.3 °F 30 in NW 2.1 mph 3.6 mph 84.2% 0 in 0 W/m2
07:24 46.8 °F 42.3 °F 30 in WNW 0.7 mph 2.9 mph 84% 0 in 0 W/m2
07:29 46.8 °F 42.3 °F 30 in Calm     84.1% 0 in 0 W/m2
07:34 46.6 °F 42.3 °F 30 in Calm     85% 0 in 0 W/m2
07:39 46.4 °F 42.3 °F 30 in NNW 0.9 mph 2.7 mph 85.5% 0 in 0 W/m2
07:44 46.2 °F 42.1 °F 30 in NNW 1.7 mph 3.6 mph 85.2% 0 in 0 W/m2
07:49 46.2 °F 41.9 °F 30 in NW 2.2 mph 3.6 mph 84.6% 0 in 0 W/m2
07:54 46.2 °F 41.7 °F 30 in NW 2.4 mph 3.6 mph 84% 0 in 0 W/m2
07:59 46.4 °F 41.9 °F 30 in WNW 0.5 mph 2.9 mph 84.5% 0 in 2 W/m2
08:04 46.4 °F 42.1 °F 30 in NW 2.2 mph 3.6 mph 85.1% 0 in 4 W/m2
08:09 46.4 °F 42.1 °F 30 in WNW 1.4 mph 3.8 mph 85.2% 0 in 6 W/m2
08:14 46.4 °F 42.4 °F 30 in WNW 1.7 mph 3.4 mph 86% 0 in 8 W/m2
08:19 46.6 °F 42.3 °F 30 in NW 2.1 mph 3.4 mph 85.1% 0 in 11 W/m2
08:24 46.8 °F 42.4 °F 30 in NW 0.6 mph 3.6 mph 85% 0 in 13 W/m2
08:29 46.8 °F 42.4 °F 30 in Calm     85% 0 in 15 W/m2
08:34 46.6 °F 42.4 °F 30 in NNW 1.7 mph 3.6 mph 85.3% 0 in 18 W/m2
08:39 46.4 °F 42.4 °F 30 in NW 0.9 mph 3.6 mph 86% 0 in 21 W/m2
08:44 46.4 °F 42.4 °F 30 in WNW 0.4 mph 2.7 mph 86% 0 in 26 W/m2
08:49 46.2 °F 42.3 °F 30 in NNW 0.7 mph 1.8 mph 86% 0 in 28 W/m2
08:54 46.4 °F 42.3 °F 30 in NW 1.2 mph 2.5 mph 85.4% 0 in 33 W/m2
08:59 46.6 °F 42.1 °F 30 in WNW 1.1 mph 3.6 mph 84.4% 0 in 35 W/m2
09:04 46.8 °F 41.9 °F 30 in West 0.6 mph 2.7 mph 83.4% 0 in 39 W/m2
09:09 46.9 °F 42.1 °F 30 in SW 0.7 mph 3.4 mph 82.6% 0 in 43 W/m2
09:14 47.3 °F 41.9 °F 30 in South 1.2 mph 3.4 mph 81.6% 0 in 50 W/m2
09:19 47.7 °F 42.1 °F 30 in SSW 0.5 mph 2.9 mph 81% 0 in 54 W/m2
09:24 47.8 °F 42.1 °F 30 in SW 1.2 mph 3.6 mph 80.4% 0 in 61 W/m2
09:29 48 °F 42.3 °F 30 in South 1.1 mph 3.1 mph 80.8% 0 in 69 W/m2
09:34 48.2 °F 42.3 °F 30 in SSE 0.2 mph 2.9 mph 80.2% 0 in 72 W/m2
09:39 48.2 °F 42.4 °F 30 in SE 1.1 mph 3.4 mph 80.6% 0 in 69 W/m2
09:44 48.4 °F 42.8 °F 30 in East 0.2 mph 2.9 mph 81% 0 in 56 W/m2
09:49 48.4 °F 42.8 °F 30 in Calm   2.7 mph 81% 0 in 61 W/m2
09:54 48.6 °F 42.8 °F 30 in ENE 0.4 mph 2.7 mph 81% 0 in 87 W/m2
09:59 48.6 °F 42.8 °F 30 in Calm   2.7 mph 80.4% 0 in 90 W/m2
10:04 48.7 °F 42.8 °F 30 in ESE 0.1 mph 2.5 mph 80.2% 0 in 87 W/m2
10:09 48.9 °F 43.3 °F 30 in SSW 1.2 mph 3.8 mph 81% 0 in 86 W/m2
10:14 49.1 °F 43.3 °F 30 in South 2.7 mph 6 mph 81% 0 in 108 W/m2
10:19 49.1 °F 43.5 °F 30 in SSE 1.4 mph 5.1 mph 81% 0 in 95 W/m2
10:24 49.3 °F 43.7 °F 30 in SSE 0.7 mph 5.1 mph 81% 0 in 95 W/m2
10:29 49.3 °F 43.7 °F 30 in South 1.8 mph 5.8 mph 81.2% 0 in 92 W/m2
10:34 49.5 °F 43.9 °F 30 in ESE 2 mph 5.8 mph 81% 0 in 83 W/m2
10:39 49.5 °F 44.1 °F 30 in SSE 2.2 mph 5.8 mph 81.8% 0 in 116 W/m2
10:44 49.5 °F 44.2 °F 30 in SSE 1 mph 4.3 mph 82% 0 in 128 W/m2
10:49 49.6 °F 44.2 °F 30 in SE 1.4 mph 4.9 mph 81.6% 0 in 114 W/m2
10:54 49.6 °F 44.2 °F 30 in SE 1.7 mph 5.6 mph 81% 0 in 156 W/m2
10:59 50 °F 44.2 °F 30 in SE 1.3 mph 6.3 mph 80.6% 0 in 152 W/m2
11:04 50 °F 44.1 °F 30 in SSE 2.5 mph 5.8 mph 80% 0 in 153 W/m2
11:09 50 °F 44.1 °F 30 in ESE 3.5 mph 7.6 mph 80% 0 in 166 W/m2
11:14 50 °F 44.4 °F 30 in East 2.5 mph 7.6 mph 80.8% 0 in 117 W/m2
11:19 50 °F 44.2 °F 30 in ESE 2.2 mph 4.9 mph 80.5% 0 in 189 W/m2
11:24 50.2 °F 44.1 °F 30 in SE 3 mph 5.6 mph 79.5% 0 in 189 W/m2
11:29 50.2 °F 44.1 °F 30 in SE 2.3 mph 7.2 mph 79.7% 0 in 133 W/m2
11:34 50 °F 44.2 °F 30 in SE 2.4 mph 6 mph 80.2% 0 in 138 W/m2
11:39 49.8 °F 44.1 °F 30 in ESE 2.4 mph 4.9 mph 80.4% 0 in 155 W/m2
11:44 49.6 °F 44.2 °F 30 in ESE 2.8 mph 6.7 mph 81% 0 in 153 W/m2
11:49 49.6 °F 44.1 °F 30 in ESE 2.7 mph 6 mph 81% 0 in 181 W/m2
11:54 49.6 °F 43.7 °F 30 in ESE 1.1 mph 4 mph 80% 0 in 195 W/m2
11:59 50 °F 44.1 °F 30 in ESE 1.9 mph 6 mph 80.2% 0 in 187 W/m2
12:04 50 °F 44.1 °F 30 in NE 1.4 mph 4.3 mph 79.8% 0 in 195 W/m2
12:09 50.2 °F 44.2 °F 30 in East 2.9 mph 6 mph 79.8% 0 in 187 W/m2
12:14 50.4 °F 44.4 °F 30 in East 3.1 mph 6 mph 80.4% 0 in 191 W/m2
12:19 50.2 °F 44.4 °F 30 in East 2.5 mph 5.8 mph 80.6% 0 in 252 W/m2
12:24 50.4 °F 44.2 °F 30 in Calm   5.4 mph 79.6% 0 in 209 W/m2
12:29 50.5 °F 44.2 °F 30 in East 3.1 mph 6 mph 79% 0 in 215 W/m2
12:34 50.5 °F 44.2 °F 30 in ENE 2.1 mph 5.1 mph 78.7% 0 in 254 W/m2
12:39 50.7 °F 44.4 °F 30 in East 2.9 mph 6.9 mph 78.8% 0 in 245 W/m2
12:44 50.5 °F 44.2 °F 30 in ENE 2.7 mph 7.6 mph 79.1% 0 in 211 W/m2
12:49 50.5 °F 44.2 °F 30 in ESE 3.2 mph 7.6 mph 79% 0 in 178 W/m2
12:54 50.4 °F 44.1 °F 29.9 in ESE 2.9 mph 6.9 mph 79.2% 0 in 152 W/m2
12:59 50.2 °F 44.1 °F 29.9 in East 2.2 mph 7.6 mph 79.4% 0 in 142 W/m2
13:04 50 °F 44.1 °F 29.9 in East 2.7 mph 7.6 mph 79.8% 0 in 133 W/m2
13:09 50 °F 43.9 °F 29.9 in SE 2.1 mph 6.5 mph 79.8% 0 in 131 W/m2
13:14 50 °F 43.7 °F 29.9 in SSE 2.1 mph 6.5 mph 79% 0 in 117 W/m2
13:19 50 °F 43.3 °F 29.9 in SSE 2.5 mph 7.4 mph 78% 0 in 120 W/m2
13:24 50.2 °F 43.5 °F 29.9 in SE 2.1 mph 7.4 mph 78% 0 in 140 W/m2
13:29 50.2 °F 43.5 °F 29.9 in SSE 1.6 mph 5.4 mph 78% 0 in 141 W/m2
13:34 50.2 °F 43.5 °F 29.9 in SE 2.5 mph 6.7 mph 78.2% 0 in 107 W/m2
13:39 50 °F 43.3 °F 29.9 in SSE 1.9 mph 4.9 mph 78.2% 0 in 102 W/m2
13:44 50 °F 43.5 °F 29.9 in SW 1.5 mph 6.5 mph 78.4% 0 in 107 W/m2
13:49 50 °F 43.5 °F 29.9 in South 3.2 mph 6.5 mph 78.6% 0 in 103 W/m2
13:54 50 °F 43.7 °F 29.9 in SSE 3.4 mph 6.9 mph 79% 0 in 119 W/m2
13:59 50 °F 43.9 °F 29.9 in SSE 3.4 mph 6.9 mph 79.4% 0 in 144 W/m2
14:04 50 °F 43.7 °F 29.9 in South 2.7 mph 7.2 mph 79% 0 in 144 W/m2
14:09 50 °F 43.7 °F 29.9 in SSE 1.7 mph 5.8 mph 79% 0 in 138 W/m2
14:14 50.2 °F 43.9 °F 29.9 in SE 2.9 mph 5.4 mph 79% 0 in 124 W/m2
14:19 50 °F 44.1 °F 29.9 in SE 2.7 mph 5.8 mph 79.9% 0 in 133 W/m2
14:24 50 °F 44.1 °F 29.9 in SSE 1.2 mph 5.8 mph 80% 0 in 114 W/m2
14:29 50 °F 44.2 °F 29.9 in SE 1.4 mph 4 mph 80.2% 0 in 91 W/m2
14:34 49.8 °F 44.1 °F 29.9 in ESE 0.7 mph 3.8 mph 80% 0 in 98 W/m2
14:39 50 °F 44.1 °F 29.9 in SSE 2.2 mph 4.9 mph 80% 0 in 107 W/m2
14:44 50 °F 44.1 °F 29.9 in ESE 2.2 mph 6.3 mph 80% 0 in 110 W/m2
14:49 50 °F 44.1 °F 29.9 in SE 2.7 mph 6.3 mph 80% 0 in 113 W/m2
14:54 50 °F 44.1 °F 29.9 in SSE 3 mph 6.7 mph 80% 0 in 116 W/m2
14:59 50 °F 43.5 °F 29.9 in SSE 5.2 mph 8.7 mph 78.6% 0 in 124 W/m2
15:04 50 °F 43 °F 29.9 in South 5.2 mph 9.6 mph 76.8% 0 in 128 W/m2
15:09 49.8 °F 42.6 °F 29.9 in South 4.4 mph 8.7 mph 76% 0 in 104 W/m2
15:14 49.8 °F 42.6 °F 29.9 in South 4.6 mph 12.1 mph 76.2% 0 in 70 W/m2
15:19 49.8 °F 42.8 °F 29.9 in South 4 mph 8.7 mph 76.4% 0 in 63 W/m2
15:24 50 °F 43.2 °F 29.9 in South 3.7 mph 8.7 mph 77% 0 in 55 W/m2
15:29 49.8 °F 43.2 °F 29.9 in SSE 4.1 mph 8.5 mph 78.1% 0 in 45 W/m2
15:34 49.6 °F 43.3 °F 29.9 in South 3.5 mph 8.5 mph 79% 0.02 in 40 W/m2
15:39 49.5 °F 43.3 °F 29.9 in South 3.9 mph 8.5 mph 79.2% 0.1 in 38 W/m2
15:44 49.5 °F 43.5 °F 29.9 in South 4.5 mph 8.7 mph 80.4% 0.14 in 37 W/m2
15:49 49.1 °F 43.9 °F 29.9 in South 3.7 mph 7.4 mph 81.7% 0.07 in 34 W/m2
15:54 48.9 °F 43.7 °F 29.9 in South 2.5 mph 5.6 mph 82% 0 in 29 W/m2
15:59 48.7 °F 43.9 °F 29.9 in South 2.2 mph 5.8 mph 82.9% 0 in 31 W/m2
16:04 48.7 °F 43.5 °F 29.9 in South 3.4 mph 6.9 mph 81.8% 0.09 in 31 W/m2
16:09 48.7 °F 43.7 °F 29.9 in SSW 1.7 mph 6.3 mph 82.4% 0.05 in 31 W/m2
16:14 48.7 °F 43.7 °F 29.9 in SSE 3 mph 5.8 mph 82.4% 0.03 in 33 W/m2
16:19 48.7 °F 43.9 °F 29.9 in SSE 2.4 mph 8.7 mph 82.8% 0.02 in 34 W/m2
16:24 48.7 °F 43.9 °F 29.9 in South 3 mph 8.7 mph 83% 0 in 28 W/m2
16:29 48.7 °F 43.9 °F 29.9 in SSW 3.4 mph 6.7 mph 83% 0 in 28 W/m2
16:34 48.7 °F 43.7 °F 29.9 in South 3.1 mph 6.7 mph 82.6% 0 in 23 W/m2
16:39 48.7 °F 43.7 °F 29.9 in SSW 2.2 mph 6.3 mph 82.4% 0 in 20 W/m2
16:44 48.7 °F 43.5 °F 29.9 in South 2.9 mph 6.3 mph 82% 0 in 13 W/m2
16:49 48.7 °F 43.7 °F 29.9 in SSW 2 mph 5.8 mph 82.4% 0 in 9 W/m2
16:54 48.7 °F 43.7 °F 29.9 in SSE 3.4 mph 6.7 mph 82.4% 0 in 5 W/m2
16:59 48.7 °F 43.9 °F 29.9 in SSE 2.4 mph 5.6 mph 82.8% 0 in 5 W/m2
17:04 48.7 °F 43.9 °F 29.9 in South 2.2 mph 4.5 mph 83% 0 in 6 W/m2
17:09 48.6 °F 43.7 °F 29.9 in SSE 2.4 mph 5.4 mph 83.4% 0 in 4 W/m2
17:14 48.6 °F 43.9 °F 29.9 in South 2.3 mph 5.4 mph 84% 0 in 3 W/m2
17:19 48.4 °F 43.7 °F 29.9 in South 1.3 mph 5.8 mph 84% 0 in 3 W/m2
17:24 48.4 °F 43.7 °F 29.9 in South 0.7 mph 3.4 mph 84.2% 0 in 2 W/m2
17:29 48.4 °F 43.7 °F 29.9 in SSE 0.9 mph 2.7 mph 84.2% 0 in 0 W/m2
17:34 48.2 °F 43.5 °F 29.9 in SSE 0.8 mph 3.4 mph 84.2% 0 in 0 W/m2
17:39 48.2 °F 43.5 °F 29.9 in SSW 1.6 mph 4.5 mph 84% 0.02 in 0 W/m2
17:44 48.2 °F 43.5 °F 29.8 in SSW 1.6 mph 6.3 mph 84.1% 0 in 0 W/m2
17:49 48.2 °F 43 °F 29.8 in SSW 2.6 mph 6.7 mph 82% 0 in 0 W/m2
17:54 48.4 °F 42.6 °F 29.8 in South 3.9 mph 8.7 mph 80.3% 0 in 0 W/m2
17:59 48.6 °F 42.4 °F 29.8 in South 4.3 mph 8.7 mph 79% 0 in 0 W/m2
18:04 48.7 °F 42.4 °F 29.8 in South 5 mph 10.5 mph 78.1% 0 in 0 W/m2
18:09 49.1 °F 42.4 °F 29.8 in South 4.7 mph 10.5 mph 77.2% 0 in 0 W/m2
18:14 49.3 °F 42.4 °F 29.8 in South 4.5 mph 11.9 mph 76.8% 0 in 0 W/m2
18:19 49.5 °F 42.6 °F 29.8 in South 4.2 mph 11.9 mph 77% 0 in 0 W/m2
18:24 49.5 °F 42.6 °F 29.8 in South 4.1 mph 9.8 mph 77% 0 in 0 W/m2
18:29 49.5 °F 42.8 °F 29.8 in SSE 4.2 mph 9.8 mph 77.7% 0 in 0 W/m2
18:34 49.3 °F 42.8 °F 29.8 in South 2.7 mph 6.3 mph 78.9% 0 in 0 W/m2
18:39 49.1 °F 42.8 °F 29.8 in South 3.9 mph 6.7 mph 79% 0 in 0 W/m2
18:44 48.9 °F 43 °F 29.8 in South 4.2 mph 9.2 mph 79.8% 0.03 in 0 W/m2
18:49 48.9 °F 43 °F 29.8 in SSE 4 mph 8.7 mph 80% 0.04 in 0 W/m2
18:54 48.9 °F 43.3 °F 29.8 in South 4.5 mph 7.6 mph 81% 0 in 0 W/m2
18:59 48.7 °F 43.3 °F 29.8 in SSW 4.5 mph 9.4 mph 81.6% 0 in 0 W/m2
19:04 48.7 °F 43.5 °F 29.8 in South 4.5 mph 8.3 mph 82.2% 0 in 0 W/m2
19:09 48.6 °F 43.7 °F 29.8 in South 3 mph 7.6 mph 83% 0.01 in 0 W/m2
19:14 48.6 °F 43.7 °F 29.8 in South 3 mph 8.1 mph 83% 0.04 in 0 W/m2
19:19 48.6 °F 43.7 °F 29.8 in South 4.3 mph 10.7 mph 83% 0.1 in 0 W/m2
19:24 48.6 °F 44.1 °F 29.8 in South 4.9 mph 10.7 mph 84.5% 0.09 in 0 W/m2
19:29 48.4 °F 44.1 °F 29.8 in South 3.5 mph 7.6 mph 85% 0 in 0 W/m2
19:34 48.2 °F 44.2 °F 29.8 in South 3.4 mph 6.7 mph 86.2% 0 in 0 W/m2
19:39 48 °F 44.4 °F 29.8 in South 2.4 mph 5.6 mph 86.7% 0 in 0 W/m2
19:44 48 °F 44.1 °F 29.8 in South 4.2 mph 8.1 mph 85.8% 0 in 0 W/m2
19:48 48.2 °F 43.9 °F 29.8 in South 4.3 mph 8.1 mph 85% 0 in 0 W/m2
19:54 48.2 °F 43.9 °F 29.8 in South 4.7 mph 7.8 mph 85% 0 in 0 W/m2
19:59 48.2 °F 43.9 °F 29.8 in South 4 mph 8.7 mph 85% 0 in 0 W/m2
20:04 48.2 °F 43.9 °F 29.8 in SSW 1.4 mph 8.7 mph 85% 0 in 0 W/m2
20:09 48.2 °F 43.9 °F 29.8 in SSE 4.9 mph 8.7 mph 85% 0.07 in 0 W/m2
20:14 48.4 °F 44.1 °F 29.8 in South 4.8 mph 13.2 mph 85% 0.15 in 0 W/m2
20:19 48.4 °F 44.1 °F 29.8 in South 5.7 mph 11.2 mph 85.1% 0.17 in 0 W/m2
20:24 48.4 °F 44.2 °F 29.8 in South 6.2 mph 12.8 mph 85.4% 0.12 in 0 W/m2
20:29 48.4 °F 44.1 °F 29.8 in South 8.1 mph 13.4 mph 85.2% 0.17 in 0 W/m2
20:34 48.6 °F 43.9 °F 29.8 in South 5.8 mph 13.4 mph 84.3% 0.1 in 0 W/m2
20:39 48.6 °F 44.4 °F 29.8 in South 6.7 mph 13.6 mph 85.5% 0.13 in 0 W/m2
20:44 48.4 °F 44.2 °F 29.8 in South 6.5 mph 13.6 mph 85.8% 0.15 in 0 W/m2
20:49 48.2 °F 44.4 °F 29.8 in South 5.2 mph 11.4 mph 86.5% 0.18 in 0 W/m2
20:54 48 °F 44.4 °F 29.8 in South 6.2 mph 11 mph 87% 0.19 in 0 W/m2
20:59 47.8 °F 44.1 °F 29.8 in South 5.6 mph 11.9 mph 86.4% 0.19 in 0 W/m2
21:04 47.8 °F 44.1 °F 29.8 in South 5.5 mph 11.9 mph 86.8% 0.14 in 0 W/m2
21:09 47.7 °F 44.1 °F 29.8 in South 4.7 mph 10.1 mph 87.2% 0.08 in 0 W/m2
21:14 47.7 °F 43.5 °F 29.8 in South 7 mph 13 mph 85.5% 0.06 in 0 W/m2
21:19 47.7 °F 43.5 °F 29.8 in South 5 mph 10.5 mph 85.5% 0.03 in 0 W/m2
21:24 47.7 °F 43.3 °F 29.8 in SSE 5 mph 11.2 mph 85.4% 0.02 in 0 W/m2
21:29 47.5 °F 43.3 °F 29.8 in South 4.2 mph 7.8 mph 85.4% 0.02 in 0 W/m2
21:34 47.5 °F 43.2 °F 29.8 in South 4.2 mph 9.6 mph 84.4% 0.04 in 0 W/m2
21:39 47.7 °F 43 °F 29.8 in South 5 mph 9.8 mph 83.5% 0.09 in 0 W/m2
21:44 47.7 °F 42.8 °F 29.8 in South 4.8 mph 9.4 mph 82.9% 0.11 in 0 W/m2
21:49 47.7 °F 42.8 °F 29.8 in South 3.6 mph 9.2 mph 82.8% 0.08 in 0 W/m2
21:54 47.8 °F 42.4 °F 29.8 in SSW 3.7 mph 11.4 mph 81.6% 0.01 in 0 W/m2
21:59 47.8 °F 42.4 °F 29.8 in South 5.3 mph 9.8 mph 81.7% 0 in 0 W/m2
22:04 48 °F 42.3 °F 29.8 in South 5.7 mph 10.1 mph 80.5% 0 in 0 W/m2
22:09 48 °F 42.3 °F 29.8 in South 3.5 mph 8.5 mph 80.7% 0 in 0 W/m2
22:14 48 °F 42.4 °F 29.8 in South 3.2 mph 6.9 mph 81% 0 in 0 W/m2
22:19 48 °F 42.3 °F 29.8 in South 4.6 mph 8.5 mph 80.5% 0 in 0 W/m2
22:24 48 °F 42.3 °F 29.8 in South 2.7 mph 5.8 mph 80.2% 0 in 0 W/m2
22:29 48 °F 42.3 °F 29.8 in South 2.4 mph 8.5 mph 80.5% 0 in 0 W/m2
22:34 48 °F 42.1 °F 29.8 in South 0.9 mph 8.5 mph 79.9% 0 in 0 W/m2
22:39 47.8 °F 42.3 °F 29.8 in South 2.2 mph 6.3 mph 80.8% 0 in 0 W/m2
22:44 47.7 °F 41.9 °F 29.8 in South 2.3 mph 6.3 mph 80.4% 0 in 0 W/m2
22:49 47.7 °F 41.5 °F 29.8 in South 2.6 mph 5.4 mph 79.6% 0 in 0 W/m2
22:54 47.7 °F 41.7 °F 29.8 in SSE 2.7 mph 5.4 mph 79.7% 0 in 0 W/m2
22:59 47.5 °F 41.5 °F 29.8 in South 2.9 mph 5.4 mph 79.4% 0 in 0 W/m2
23:04 47.3 °F 41.5 °F 29.8 in SSE 2 mph 6.9 mph 80% 0 in 0 W/m2
23:09 47.3 °F 41.2 °F 29.8 in SSE 1.7 mph 6.3 mph 79.1% 0 in 0 W/m2
23:14 47.3 °F 41.2 °F 29.8 in South 1.4 mph 4.9 mph 79.3% 0 in 0 W/m2
23:19 46.9 °F 41.4 °F 29.8 in SW 0.4 mph 4 mph 80% 0 in 0 W/m2
23:24 46.8 °F 40.8 °F 29.8 in NNW 1.6 mph 3.8 mph 80% 0 in 0 W/m2
23:29 46.4 °F 41.2 °F 29.8 in NW 2.2 mph 4 mph 81.6% 0 in 0 W/m2
23:34 46 °F 41.4 °F 29.8 in NW 2.2 mph 4.9 mph 83.5% 0 in 0 W/m2
23:39 46 °F 41 °F 29.8 in NW 2.4 mph 4.9 mph 82.5% 0 in 0 W/m2
23:44 46 °F 40.5 °F 29.8 in NW 1.9 mph 5.1 mph 80.6% 0 in 0 W/m2
23:49 46.2 °F 39.9 °F 29.8 in NNW 1.9 mph 3.8 mph 78.4% 0 in 0 W/m2
23:54 46.2 °F 39.7 °F 29.8 in NNE 0.9 mph 3.8 mph 78.2% 0 in 0 W/m2
23:59 46.2 °F 39.4 °F 29.8 in West 0.7 mph 4.5 mph 76.8% 0 in 0 W/m2
Juneau County Weather
Compliments of Weather Underground - 2 mb